Accueil
METAR-TAF:

METAR-TAF

Aéroports :

Aéroport de Bristol

Bristol, Angleterre

latitude: 51-23N, longitude: 002-43W, altitude: 189 m

Observation

Le bulletin a été fait il y a 28 minutes, à 22:50 UTC
Vent 7 kt de ouest
Température 9°C
Humidité 100%
Pression 1032 hPa
Visibilité 10 km ou plus

METAR: EGGD 232250Z AUTO 27007KT 9999 NCD 09/09 Q1032

Heure: 00:18 (23:18 UTC)

Prévision

Le bulletin a été fait il y a 6 heures et 20 minutes, à 16:58 UTC
Prévision valable du 23 à 18 UTC au 24 à 18 UTC
Vent 12 kt de ouest/sud-ouest
Visibilité 10 km ou plus
Quelques nuages à une hauteur de 2000 ft
Temporairement
du 23 à 22 UTC au 24 à 10 UTC
Visibilité: 1200 m
Nuages fragmentés à une hauteur de 200 ft
brume
Probabilité 30% :
Temporairement
du 24 à 03 UTC au 24 à 09 UTC
Visibilité: 0200 m
brouillard

TAF: EGGD 231658Z 2318/2418 25012KT 9999 FEW020 TEMPO 2322/2410 1200 BR BKN002 PROB30 TEMPO 2403/2409 0200 FG VV///

Observations et prévisions météorologiques de plus de 4000 aéroports (messages METAR et TAF).

Les stations disponibles sont représentées par des disques jaunes et rouges sur la carte.

Passer la souris dessus pour voir le nom de la station.

Cliquer dessus pour voir les observations et prévisions météorologiques.

Pour changer de carte: cliquez sur les boutons verts avec une croix noire pour zoomer, sur le bouton vert avec un tiret pour effectuer un zoom arrière, ou sur les flèches vertes pour les cartes adjacentes.


METAR-TAF: